Time;durP1;ratioP1;P1;durP2;ratioP2;P2;SDS_P1;SDS_P2;PMS_P1;PMS_P2;Temp;Humidity;BMP_temperature;BMP_pressure;BME280_temperature;BME280_humidity;BME280_pressure;Samples;Min_cycle;Max_cycle;Signal;HPM_P1;HPM_P2
2023/09/23 00:00:18;;;;;;;;;;;19.50;96.00;;;;;;5080966;28;19966;-67
2023/09/23 00:02:44;;;;;;;;;;;19.40;96.20;;;;;;5080272;28;19916;-63
2023/09/23 00:05:12;;;;;;;;;;;19.40;95.90;;;;;;5096031;28;20314;-65
2023/09/23 00:07:42;;;;;;;;;;;19.20;95.60;;;;;;5091768;28;19916;-64
2023/09/23 00:10:10;;;;;;;;;;;19.10;96.00;;;;;;5090686;28;19969;-65
2023/09/23 00:12:38;;;;;;;;;;;19.00;96.40;;;;;;5081547;28;19916;-63
2023/09/23 00:15:05;;;;;;;;;;;19.00;96.30;;;;;;5075927;28;19908;-67
2023/09/23 00:17:32;;;;;;;;;;;19.00;96.10;;;;;;5094916;28;19943;-64
2023/09/23 00:20:00;;;;;;;;;;;19.10;95.90;;;;;;5094470;28;19908;-70
2023/09/23 00:22:27;;;;;;;;;;;19.10;95.30;;;;;;5094545;28;19920;-69
2023/09/23 00:24:54;;;;;;;;;;;19.20;95.80;;;;;;5095538;28;19908;-66
2023/09/23 00:27:21;;;;;;;;;;;19.30;95.30;;;;;;5094855;28;19912;-67
2023/09/23 00:29:49;;;;;;;;;;;19.40;95.10;;;;;;5079480;28;19912;-63
2023/09/23 00:32:17;;;;;;;;;;;19.40;94.20;;;;;;5076981;28;20362;-64
2023/09/23 00:34:43;;;;;;;;;;;19.30;93.30;;;;;;5086468;28;19916;-65
2023/09/23 00:37:10;;;;;;;;;;;19.40;93.70;;;;;;5080002;28;19965;-74
2023/09/23 00:39:38;;;;;;;;;;;19.40;93.20;;;;;;5082017;28;19912;-65
2023/09/23 00:42:04;;;;;;;;;;;19.30;93.80;;;;;;5095455;28;19924;-68
2023/09/23 00:44:31;;;;;;;;;;;19.30;94.00;;;;;;5088817;28;20360;-68
2023/09/23 00:46:58;;;;;;;;;;;19.30;93.90;;;;;;5091702;28;19912;-65
2023/09/23 00:49:27;;;;;;;;;;;19.20;93.70;;;;;;5085904;28;20392;-71
2023/09/23 00:51:53;;;;;;;;;;;19.20;93.90;;;;;;5095305;28;19914;-64
2023/09/23 00:54:21;;;;;;;;;;;19.20;93.40;;;;;;5094291;28;19951;-65
2023/09/23 00:56:48;;;;;;;;;;;19.00;93.10;;;;;;5078029;28;19912;-65
2023/09/23 00:59:17;;;;;;;;;;;18.90;93.50;;;;;;5074968;28;19912;-65
2023/09/23 01:01:43;;;;;;;;;;;19.10;93.50;;;;;;5078108;28;19935;-66
2023/09/23 01:04:13;;;;;;;;;;;19.00;93.40;;;;;;5089884;28;19958;-72
2023/09/23 01:06:40;;;;;;;;;;;19.10;92.60;;;;;;5079172;28;20003;-65
2023/09/23 01:09:13;;;;;;;;;;;19.20;92.70;;;;;;5074433;28;19936;-63
2023/09/23 01:11:40;;;;;;;;;;;19.40;93.00;;;;;;5087357;28;20326;-70
2023/09/23 01:14:07;;;;;;;;;;;19.50;93.30;;;;;;5093344;28;19916;-64
2023/09/23 01:16:34;;;;;;;;;;;19.80;92.10;;;;;;5094082;28;20360;-64
2023/09/23 01:19:01;;;;;;;;;;;19.80;91.50;;;;;;5079281;28;19916;-65
2023/09/23 01:21:27;;;;;;;;;;;19.90;91.50;;;;;;5084173;28;20364;-64
2023/09/23 01:23:54;;;;;;;;;;;19.80;91.50;;;;;;5079646;28;20390;-63
2023/09/23 01:26:20;;;;;;;;;;;19.80;91.00;;;;;;5083553;28;19915;-65
2023/09/23 01:28:49;;;;;;;;;;;19.70;90.50;;;;;;5076404;28;20415;-65
2023/09/23 01:31:17;;;;;;;;;;;19.50;91.10;;;;;;5093807;28;20288;-64
2023/09/23 01:33:44;;;;;;;;;;;19.50;91.00;;;;;;5074574;28;20353;-63
2023/09/23 01:36:11;;;;;;;;;;;19.40;91.40;;;;;;5084230;28;19912;-64
2023/09/23 01:38:41;;;;;;;;;;;19.40;91.00;;;;;;5074114;28;19912;-63
2023/09/23 01:41:07;;;;;;;;;;;19.50;91.40;;;;;;5086291;28;19920;-66
2023/09/23 01:43:34;;;;;;;;;;;19.50;91.60;;;;;;5084716;28;19930;-64
2023/09/23 01:46:03;;;;;;;;;;;19.50;90.80;;;;;;5089488;28;19918;-64
2023/09/23 01:48:30;;;;;;;;;;;19.60;90.80;;;;;;5084852;28;20012;-65
2023/09/23 01:51:00;;;;;;;;;;;19.60;91.20;;;;;;5087293;28;19908;-65
2023/09/23 01:53:28;;;;;;;;;;;19.70;90.70;;;;;;5081995;28;19912;-65
2023/09/23 01:55:54;;;;;;;;;;;19.80;90.20;;;;;;5073781;28;20008;-65
2023/09/23 01:58:23;;;;;;;;;;;19.80;90.70;;;;;;5073690;28;20007;-67
2023/09/23 02:00:52;;;;;;;;;;;19.90;89.90;;;;;;5089872;28;19916;-64
2023/09/23 02:03:18;;;;;;;;;;;19.90;89.20;;;;;;5087896;28;20369;-70
2023/09/23 02:05:46;;;;;;;;;;;19.90;88.80;;;;;;5089536;28;19934;-66
2023/09/23 02:08:13;;;;;;;;;;;19.90;89.10;;;;;;5092277;28;19935;-64
2023/09/23 02:10:43;;;;;;;;;;;20.00;88.70;;;;;;5093882;28;20331;-64
2023/09/23 02:13:10;;;;;;;;;;;20.00;89.10;;;;;;5091253;28;20388;-69
2023/09/23 02:15:36;;;;;;;;;;;20.10;88.60;;;;;;5090843;28;19913;-65
2023/09/23 02:18:04;;;;;;;;;;;20.00;88.00;;;;;;5093820;28;20276;-68
2023/09/23 02:20:30;;;;;;;;;;;20.10;88.80;;;;;;5073717;28;19913;-66
2023/09/23 02:22:57;;;;;;;;;;;20.20;88.00;;;;;;5073494;28;19935;-68
2023/09/23 02:25:27;;;;;;;;;;;20.10;87.80;;;;;;5075497;28;20036;-66
2023/09/23 02:27:55;;;;;;;;;;;20.10;88.30;;;;;;5073962;28;20311;-65
2023/09/23 02:30:22;;;;;;;;;;;20.00;87.20;;;;;;5080978;28;19912;-64
2023/09/23 02:32:48;;;;;;;;;;;20.00;87.60;;;;;;5091942;28;19912;-69
2023/09/23 02:35:16;;;;;;;;;;;20.10;87.80;;;;;;5092091;28;19912;-66
2023/09/23 02:37:44;;;;;;;;;;;20.20;86.60;;;;;;5091586;28;19916;-67
2023/09/23 02:40:17;;;;;;;;;;;20.30;86.10;;;;;;5073733;28;19912;-68
2023/09/23 02:42:45;;;;;;;;;;;20.30;86.30;;;;;;5078019;28;19942;-67
2023/09/23 02:45:14;;;;;;;;;;;20.20;85.70;;;;;;5093195;28;19962;-68
2023/09/23 02:47:46;;;;;;;;;;;20.10;85.80;;;;;;5093273;28;19920;-68
2023/09/23 02:50:13;;;;;;;;;;;20.20;87.10;;;;;;5073580;28;20262;-69
2023/09/23 02:52:41;;;;;;;;;;;20.30;87.80;;;;;;5072985;28;20376;-67
2023/09/23 02:55:12;;;;;;;;;;;20.50;86.40;;;;;;5079840;28;19956;-67
2023/09/23 02:57:40;;;;;;;;;;;20.50;86.40;;;;;;5076571;28;20050;-66
2023/09/23 03:00:41;;;;;;;;;;;21.40;86.70;;;;;;5073659;28;19912;-68
2023/09/23 03:03:03;;;;;;;;;;;23.60;80.60;;;;;;5079605;28;20399;-65
2023/09/23 03:05:30;;;;;;;;;;;26.40;73.70;;;;;;5091756;28;19916;-65
2023/09/23 03:08:00;;;;;;;;;;;28.50;69.30;;;;;;5092822;28;19933;-71
2023/09/23 03:10:39;;;;;;;;;;;29.80;66.00;;;;;;5082240;28;19920;-67
2023/09/23 03:13:07;;;;;;;;;;;31.70;62.00;;;;;;5074574;28;20571;-68
2023/09/23 03:15:50;;;;;;;;;;;32.00;59.00;;;;;;5080601;28;20032;-67
2023/09/23 03:18:27;;;;;;;;;;;31.90;58.20;;;;;;5113062;28;19915;-67
2023/09/23 03:20:58;;;;;;;;;;;33.20;57.90;;;;;;5112119;28;19961;-70
2023/09/23 03:23:24;;;;;;;;;;;34.10;54.80;;;;;;5113425;28;19947;-66
2023/09/23 03:25:52;;;;;;;;;;;32.70;55.70;;;;;;5103254;28;19909;-66
2023/09/23 03:28:19;;;;;;;;;;;31.50;55.30;;;;;;5073887;28;20385;-68
2023/09/23 03:30:49;;;;;;;;;;;31.80;56.60;;;;;;5076506;28;20546;-67
2023/09/23 03:33:18;;;;;;;;;;;32.50;54.60;;;;;;5079940;28;20312;-69
2023/09/23 03:35:45;;;;;;;;;;;33.00;55.00;;;;;;5092359;28;19916;-70
2023/09/23 03:38:12;;;;;;;;;;;33.60;54.90;;;;;;5092577;28;20262;-74
2023/09/23 03:40:38;;;;;;;;;;;34.20;52.90;;;;;;5085093;28;19916;-67
2023/09/23 03:43:05;;;;;;;;;;;34.20;53.50;;;;;;5080682;28;19924;-74
2023/09/23 03:45:35;;;;;;;;;;;33.80;53.70;;;;;;5080600;28;19919;-74
2023/09/23 03:48:02;;;;;;;;;;;32.80;54.50;;;;;;5071984;28;19952;-75
2023/09/23 03:50:32;;;;;;;;;;;31.70;55.10;;;;;;5082272;28;19918;-76
2023/09/23 03:52:59;;;;;;;;;;;32.30;54.80;;;;;;5089361;28;20265;-74
2023/09/23 03:55:25;;;;;;;;;;;31.80;55.00;;;;;;5085098;28;19912;-69
2023/09/23 03:57:54;;;;;;;;;;;31.70;54.60;;;;;;5091247;28;19912;-68
2023/09/23 04:00:26;;;;;;;;;;;30.00;55.60;;;;;;5089223;28;19946;-68
2023/09/23 04:02:53;;;;;;;;;;;28.50;58.00;;;;;;5071794;28;19927;-67
2023/09/23 04:05:20;;;;;;;;;;;28.00;59.90;;;;;;5077755;28;19916;-71
2023/09/23 04:07:50;;;;;;;;;;;27.50;59.00;;;;;;5092035;28;19908;-67
2023/09/23 04:10:23;;;;;;;;;;;26.30;63.80;;;;;;5090895;28;19912;-66
2023/09/23 04:12:51;;;;;;;;;;;26.00;62.50;;;;;;5089251;28;19952;-65
2023/09/23 04:15:19;;;;;;;;;;;26.20;63.70;;;;;;5090315;28;19919;-68
2023/09/23 04:17:47;;;;;;;;;;;27.90;63.20;;;;;;5090868;28;20532;-70
2023/09/23 04:20:14;;;;;;;;;;;28.20;59.00;;;;;;5090843;28;19920;-72
2023/09/23 04:22:41;;;;;;;;;;;29.00;60.00;;;;;;5089997;28;19932;-69
2023/09/23 04:25:10;;;;;;;;;;;28.80;58.60;;;;;;5091593;28;19915;-69
2023/09/23 04:27:37;;;;;;;;;;;29.30;60.70;;;;;;5091153;28;19916;-66
2023/09/23 04:30:11;;;;;;;;;;;29.80;58.90;;;;;;5077738;28;20313;-68
2023/09/23 04:32:38;;;;;;;;;;;29.70;58.50;;;;;;5085270;28;19912;-67
2023/09/23 04:35:09;;;;;;;;;;;29.30;58.90;;;;;;5083517;28;19912;-68
2023/09/23 04:37:37;;;;;;;;;;;28.70;58.40;;;;;;5094958;28;19955;-71
2023/09/23 04:40:11;;;;;;;;;;;27.50;60.00;;;;;;5095164;28;20417;-69
2023/09/23 04:42:38;;;;;;;;;;;26.60;61.80;;;;;;5093270;28;19951;-68
2023/09/23 04:45:06;;;;;;;;;;;25.70;63.00;;;;;;5095358;28;19995;-66
2023/09/23 04:47:32;;;;;;;;;;;24.90;64.00;;;;;;5095728;28;19912;-71
2023/09/23 04:50:00;;;;;;;;;;;24.10;64.70;;;;;;5095819;28;19912;-67
2023/09/23 04:52:29;;;;;;;;;;;23.30;67.00;;;;;;5095679;28;19912;-73
2023/09/23 04:54:56;;;;;;;;;;;23.10;68.60;;;;;;5094927;28;19909;-68
2023/09/23 04:57:23;;;;;;;;;;;23.00;67.80;;;;;;5095708;28;19915;-70
2023/09/23 04:59:54;;;;;;;;;;;23.00;68.50;;;;;;5095230;28;19908;-68
2023/09/23 05:02:21;;;;;;;;;;;23.00;68.00;;;;;;5095437;28;20018;-68
2023/09/23 05:04:53;;;;;;;;;;;23.30;69.00;;;;;;5093530;28;19968;-67
2023/09/23 05:07:20;;;;;;;;;;;23.80;66.00;;;;;;5093699;28;19933;-70
2023/09/23 05:09:46;;;;;;;;;;;24.10;65.40;;;;;;5093405;28;19908;-71
2023/09/23 05:12:14;;;;;;;;;;;24.30;66.40;;;;;;5093392;28;19908;-67
2023/09/23 05:14:42;;;;;;;;;;;23.60;66.00;;;;;;5093361;28;19908;-68
2023/09/23 05:17:14;;;;;;;;;;;23.70;67.20;;;;;;5093494;28;19935;-68
2023/09/23 05:19:41;;;;;;;;;;;24.30;66.20;;;;;;5094843;28;19956;-68
2023/09/23 05:22:10;;;;;;;;;;;25.50;66.20;;;;;;5095048;28;19923;-68
2023/09/23 05:24:38;;;;;;;;;;;27.10;64.20;;;;;;5095263;28;19923;-67
2023/09/23 05:27:05;;;;;;;;;;;29.00;60.00;;;;;;5095069;28;19935;-71
2023/09/23 05:29:31;;;;;;;;;;;29.30;58.20;;;;;;5095077;28;19943;-67
2023/09/23 05:31:58;;;;;;;;;;;30.20;59.10;;;;;;5095099;28;19915;-69
2023/09/23 05:34:24;;;;;;;;;;;31.20;56.00;;;;;;5094851;28;20229;-68
2023/09/23 05:36:53;;;;;;;;;;;31.80;56.40;;;;;;5094951;28;19908;-68
2023/09/23 05:39:20;;;;;;;;;;;32.40;54.80;;;;;;5094470;28;20343;-69
2023/09/23 05:41:53;;;;;;;;;;;32.50;54.30;;;;;;5094581;28;19920;-68
2023/09/23 05:44:20;;;;;;;;;;;32.60;54.70;;;;;;5094861;28;19909;-69
2023/09/23 05:46:48;;;;;;;;;;;32.00;55.50;;;;;;5094825;28;19912;-67
2023/09/23 05:49:14;;;;;;;;;;;31.50;56.00;;;;;;5094435;28;19967;-69
2023/09/23 05:51:42;;;;;;;;;;;30.80;55.20;;;;;;5094603;28;19915;-69
2023/09/23 05:54:08;;;;;;;;;;;30.80;57.00;;;;;;5094572;28;19912;-69
2023/09/23 05:56:35;;;;;;;;;;;30.70;57.10;;;;;;5094368;28;20272;-69
2023/09/23 05:59:02;;;;;;;;;;;31.00;55.90;;;;;;5094441;28;19908;-67
2023/09/23 06:01:28;;;;;;;;;;;30.20;55.00;;;;;;5094344;28;19916;-70
2023/09/23 06:03:56;;;;;;;;;;;29.20;57.60;;;;;;5094275;28;19919;-69
2023/09/23 06:06:22;;;;;;;;;;;29.40;57.10;;;;;;5094279;28;20323;-70
2023/09/23 06:08:50;;;;;;;;;;;29.70;57.40;;;;;;5094235;28;20006;-69
2023/09/23 06:11:17;;;;;;;;;;;29.30;56.30;;;;;;5094173;28;20422;-71
2023/09/23 06:13:44;;;;;;;;;;;29.20;58.00;;;;;;5093797;28;20108;-69
2023/09/23 06:16:10;;;;;;;;;;;29.30;57.60;;;;;;5094108;28;20391;-67
2023/09/23 06:18:37;;;;;;;;;;;28.60;58.60;;;;;;5091047;28;19912;-68
2023/09/23 06:21:06;;;;;;;;;;;28.20;58.10;;;;;;5092817;28;19916;-68
2023/09/23 06:23:33;;;;;;;;;;;28.00;58.60;;;;;;5104283;28;19916;-67
2023/09/23 06:26:02;;;;;;;;;;;28.60;58.60;;;;;;5105904;28;20335;-69
2023/09/23 06:28:32;;;;;;;;;;;28.50;57.50;;;;;;5091964;28;19912;-68
2023/09/23 06:30:59;;;;;;;;;;;27.30;58.60;;;;;;5092895;28;19954;-69
2023/09/23 06:33:25;;;;;;;;;;;26.60;60.80;;;;;;5092903;28;19912;-69
2023/09/23 06:35:52;;;;;;;;;;;25.70;62.00;;;;;;5091985;28;19912;-68
2023/09/23 06:38:19;;;;;;;;;;;24.20;63.60;;;;;;5091862;28;19982;-69
2023/09/23 06:40:45;;;;;;;;;;;23.60;66.30;;;;;;5072582;28;19954;-70
2023/09/23 06:43:12;;;;;;;;;;;23.40;66.70;;;;;;5082231;28;19917;-67
2023/09/23 06:45:39;;;;;;;;;;;23.90;68.10;;;;;;5074979;28;19916;-70
2023/09/23 06:48:06;;;;;;;;;;;23.90;66.80;;;;;;5089965;28;19916;-69
2023/09/23 06:50:32;;;;;;;;;;;24.40;66.60;;;;;;5092278;28;19912;-67
2023/09/23 06:53:00;;;;;;;;;;;24.20;67.80;;;;;;5092393;28;20025;-69
2023/09/23 06:55:27;;;;;;;;;;;23.50;67.90;;;;;;5092333;28;19928;-68
2023/09/23 06:57:53;;;;;;;;;;;22.50;69.80;;;;;;5093022;28;20265;-68
2023/09/23 07:00:21;;;;;;;;;;;22.10;72.60;;;;;;5093072;28;19908;-67
2023/09/23 07:02:47;;;;;;;;;;;21.80;74.20;;;;;;5082537;28;19924;-67
2023/09/23 07:05:14;;;;;;;;;;;21.60;74.20;;;;;;5083244;28;19913;-67
2023/09/23 07:07:41;;;;;;;;;;;21.20;74.20;;;;;;5089360;28;19912;-68
2023/09/23 07:10:09;;;;;;;;;;;20.90;75.40;;;;;;5093123;28;19916;-69
2023/09/23 07:12:35;;;;;;;;;;;20.60;76.10;;;;;;5092315;28;20369;-68
2023/09/23 07:15:02;;;;;;;;;;;20.20;76.60;;;;;;5085351;28;19966;-68
2023/09/23 07:17:29;;;;;;;;;;;19.80;78.00;;;;;;5092471;28;19916;-68
2023/09/23 07:19:56;;;;;;;;;;;19.80;78.90;;;;;;5092675;28;19934;-68
2023/09/23 07:22:23;;;;;;;;;;;19.50;79.20;;;;;;5085612;28;19920;-68
2023/09/23 07:24:49;;;;;;;;;;;19.40;79.50;;;;;;5072580;28;19970;-68
2023/09/23 07:27:16;;;;;;;;;;;19.40;81.00;;;;;;5081083;28;20292;-68
2023/09/23 07:29:43;;;;;;;;;;;19.30;81.00;;;;;;5090238;28;19919;-65
2023/09/23 07:32:09;;;;;;;;;;;19.10;81.80;;;;;;5091788;28;19970;-71
2023/09/23 07:34:36;;;;;;;;;;;19.00;81.80;;;;;;5092770;28;19978;-70
2023/09/23 07:37:03;;;;;;;;;;;18.90;82.20;;;;;;5088549;28;19917;-70
2023/09/23 07:39:29;;;;;;;;;;;18.70;82.80;;;;;;5086389;28;19950;-69
2023/09/23 07:41:56;;;;;;;;;;;18.60;84.00;;;;;;5092582;28;20338;-67
2023/09/23 07:44:22;;;;;;;;;;;18.60;83.80;;;;;;5086978;28;19946;-68
2023/09/23 07:46:49;;;;;;;;;;;18.50;84.40;;;;;;5083414;28;19912;-69
2023/09/23 07:49:15;;;;;;;;;;;18.50;84.60;;;;;;5087920;28;19920;-71
2023/09/23 07:51:43;;;;;;;;;;;18.40;86.00;;;;;;5086511;28;20281;-70
2023/09/23 07:54:10;;;;;;;;;;;18.30;86.10;;;;;;5088761;28;19920;-68
2023/09/23 07:56:36;;;;;;;;;;;18.30;86.20;;;;;;5090177;28;19916;-72
2023/09/23 07:59:04;;;;;;;;;;;18.20;87.10;;;;;;5087277;28;19912;-71
2023/09/23 08:01:31;;;;;;;;;;;18.10;86.70;;;;;;5081244;28;19920;-71
2023/09/23 08:03:57;;;;;;;;;;;18.00;87.30;;;;;;5083491;28;19912;-69
2023/09/23 08:06:24;;;;;;;;;;;18.00;87.80;;;;;;5084084;28;19916;-72
2023/09/23 08:08:51;;;;;;;;;;;17.90;88.80;;;;;;5084429;28;20391;-70
2023/09/23 08:11:17;;;;;;;;;;;17.80;89.10;;;;;;5090833;28;19912;-69
2023/09/23 08:13:44;;;;;;;;;;;17.70;89.40;;;;;;5089336;28;20447;-68
2023/09/23 08:16:11;;;;;;;;;;;17.60;89.70;;;;;;5084120;28;19913;-68
2023/09/23 08:18:37;;;;;;;;;;;17.50;90.40;;;;;;5087231;28;19912;-65
2023/09/23 08:21:06;;;;;;;;;;;17.40;90.90;;;;;;5076096;28;19923;-70
2023/09/23 08:23:32;;;;;;;;;;;17.30;90.90;;;;;;5080729;28;19947;-66
2023/09/23 08:25:59;;;;;;;;;;;17.30;91.00;;;;;;5088212;28;19916;-68
2023/09/23 08:28:25;;;;;;;;;;;17.20;91.30;;;;;;5075549;28;20438;-64
2023/09/23 08:30:52;;;;;;;;;;;17.20;91.60;;;;;;5083062;28;19912;-65
2023/09/23 08:33:19;;;;;;;;;;;17.10;91.90;;;;;;5088507;28;19958;-66
2023/09/23 08:35:48;;;;;;;;;;;17.00;92.50;;;;;;5087253;28;19963;-64
2023/09/23 08:38:15;;;;;;;;;;;17.00;93.00;;;;;;5091190;28;19920;-67
2023/09/23 08:40:43;;;;;;;;;;;17.00;93.30;;;;;;5093352;28;19908;-65
2023/09/23 08:43:09;;;;;;;;;;;17.00;93.50;;;;;;5093607;28;20509;-65
2023/09/23 08:45:40;;;;;;;;;;;17.00;93.60;;;;;;5093479;28;19912;-65
2023/09/23 08:48:07;;;;;;;;;;;17.00;93.80;;;;;;5093888;28;20334;-68
2023/09/23 08:50:34;;;;;;;;;;;16.90;94.40;;;;;;5094253;28;20539;-69
2023/09/23 08:53:04;;;;;;;;;;;16.90;94.60;;;;;;5095806;28;19915;-64
2023/09/23 08:55:31;;;;;;;;;;;16.90;94.80;;;;;;5095301;28;19961;-66
2023/09/23 08:58:02;;;;;;;;;;;16.80;95.30;;;;;;5092966;28;19914;-69
2023/09/23 09:00:29;;;;;;;;;;;16.80;95.60;;;;;;5093377;28;19915;-66
2023/09/23 09:02:56;;;;;;;;;;;16.80;95.90;;;;;;5093459;28;19916;-66
2023/09/23 09:05:23;;;;;;;;;;;16.80;95.90;;;;;;5093506;28;19961;-64
2023/09/23 09:07:50;;;;;;;;;;;16.80;96.20;;;;;;5093355;28;20372;-64
2023/09/23 09:10:17;;;;;;;;;;;16.90;96.30;;;;;;5093560;28;19966;-64
2023/09/23 09:12:44;;;;;;;;;;;16.80;96.10;;;;;;5095157;28;19931;-64
2023/09/23 09:15:10;;;;;;;;;;;16.70;96.30;;;;;;5095500;28;19931;-63
2023/09/23 09:17:38;;;;;;;;;;;16.60;96.80;;;;;;5094887;28;20007;-65
2023/09/23 09:20:09;;;;;;;;;;;16.70;97.50;;;;;;5095191;28;19931;-66
2023/09/23 09:22:36;;;;;;;;;;;16.60;97.30;;;;;;5095065;28;19934;-64
2023/09/23 09:25:04;;;;;;;;;;;16.50;97.50;;;;;;5095159;28;19908;-65
2023/09/23 09:27:31;;;;;;;;;;;16.50;97.60;;;;;;5094866;28;20002;-66
2023/09/23 09:29:57;;;;;;;;;;;16.60;98.30;;;;;;5094977;28;20407;-65
2023/09/23 09:32:29;;;;;;;;;;;16.50;98.30;;;;;;5093704;28;19919;-65
2023/09/23 09:34:59;;;;;;;;;;;16.40;98.80;;;;;;5095032;28;19908;-66
2023/09/23 09:37:27;;;;;;;;;;;16.40;99.20;;;;;;5094893;28;19944;-66
2023/09/23 09:40:01;;;;;;;;;;;16.40;99.40;;;;;;5094875;28;19916;-64
2023/09/23 09:42:30;;;;;;;;;;;16.40;99.70;;;;;;5094935;28;20061;-65
2023/09/23 09:44:57;;;;;;;;;;;16.30;99.50;;;;;;5094985;28;19908;-67
2023/09/23 09:47:24;;;;;;;;;;;16.30;99.70;;;;;;5094617;28;19977;-66
2023/09/23 09:49:57;;;;;;;;;;;16.30;99.90;;;;;;5094800;28;19919;-66
2023/09/23 09:52:24;;;;;;;;;;;16.20;99.90;;;;;;5094795;28;20413;-66
2023/09/23 09:54:52;;;;;;;;;;;16.20;99.90;;;;;;5094606;28;20369;-65
2023/09/23 09:57:20;;;;;;;;;;;16.10;99.90;;;;;;5092984;28;19996;-65
2023/09/23 09:59:47;;;;;;;;;;;16.10;99.90;;;;;;5094423;28;19915;-65
2023/09/23 10:02:17;;;;;;;;;;;16.10;99.90;;;;;;5094405;28;19927;-66
2023/09/23 10:04:49;;;;;;;;;;;16.00;99.90;;;;;;5094681;28;20279;-64
2023/09/23 10:07:22;;;;;;;;;;;16.00;99.90;;;;;;5094214;28;20019;-66
2023/09/23 10:09:54;;;;;;;;;;;16.00;99.90;;;;;;5093947;28;19908;-66
2023/09/23 10:12:31;;;;;;;;;;;15.90;99.90;;;;;;5094012;28;19953;-68
2023/09/23 10:14:58;;;;;;;;;;;15.90;99.90;;;;;;5094253;28;19908;-66
2023/09/23 10:17:31;;;;;;;;;;;15.80;99.90;;;;;;5094180;28;19919;-65
2023/09/23 10:19:58;;;;;;;;;;;15.80;99.90;;;;;;5094050;28;19954;-66
2023/09/23 10:22:28;;;;;;;;;;;15.80;99.90;;;;;;5093718;28;19920;-64
2023/09/23 10:25:04;;;;;;;;;;;15.80;99.90;;;;;;5093737;28;19908;-65
2023/09/23 10:27:32;;;;;;;;;;;15.70;99.90;;;;;;5093790;28;19908;-67
2023/09/23 10:30:00;;;;;;;;;;;15.70;99.90;;;;;;5092909;28;19953;-65
2023/09/23 10:32:26;;;;;;;;;;;15.60;99.90;;;;;;5093979;28;19935;-66
2023/09/23 10:34:55;;;;;;;;;;;15.60;99.90;;;;;;5093817;28;20411;-67
2023/09/23 10:37:32;;;;;;;;;;;15.60;99.90;;;;;;5093748;28;19915;-66
2023/09/23 10:40:13;;;;;;;;;;;15.50;99.90;;;;;;5093766;28;20002;-66
2023/09/23 10:42:43;;;;;;;;;;;15.50;99.90;;;;;;5093624;28;19916;-66
2023/09/23 10:45:10;;;;;;;;;;;15.50;99.90;;;;;;5093687;28;19908;-65
2023/09/23 10:47:37;;;;;;;;;;;15.40;99.90;;;;;;5093413;28;19916;-64
2023/09/23 10:50:07;;;;;;;;;;;15.40;99.90;;;;;;5093161;28;19916;-65
2023/09/23 10:52:34;;;;;;;;;;;15.40;99.90;;;;;;5093437;28;19908;-67
2023/09/23 10:55:01;;;;;;;;;;;15.30;99.90;;;;;;5093246;28;20025;-66
2023/09/23 10:57:28;;;;;;;;;;;15.30;99.90;;;;;;5093300;28;19908;-64
2023/09/23 10:59:55;;;;;;;;;;;15.30;99.90;;;;;;5093413;28;19915;-65
2023/09/23 11:02:25;;;;;;;;;;;15.20;99.90;;;;;;5093289;28;19916;-66
2023/09/23 11:04:55;;;;;;;;;;;15.10;99.90;;;;;;5093445;28;20008;-69
2023/09/23 11:07:22;;;;;;;;;;;15.10;99.90;;;;;;5093063;28;19966;-65
2023/09/23 11:09:48;;;;;;;;;;;15.10;99.90;;;;;;5093084;28;19915;-65
2023/09/23 11:12:16;;;;;;;;;;;15.10;99.90;;;;;;5092960;28;20357;-65
2023/09/23 11:14:45;;;;;;;;;;;15.00;99.90;;;;;;5092586;28;19916;-65
2023/09/23 11:17:30;;;;;;;;;;;15.00;99.90;;;;;;5092452;28;20425;-66
2023/09/23 11:19:57;;;;;;;;;;;15.00;99.90;;;;;;5093075;28;19938;-66
2023/09/23 11:22:28;;;;;;;;;;;15.00;99.90;;;;;;5092466;28;19927;-63
2023/09/23 11:24:56;;;;;;;;;;;14.90;99.90;;;;;;5092152;28;19962;-68
2023/09/23 11:27:24;;;;;;;;;;;14.90;99.90;;;;;;5083175;28;19999;-67
2023/09/23 11:29:51;;;;;;;;;;;14.80;99.90;;;;;;5084977;28;19912;-64
2023/09/23 11:32:22;;;;;;;;;;;14.80;99.90;;;;;;5084187;28;19912;-65
2023/09/23 11:34:50;;;;;;;;;;;14.80;99.90;;;;;;5091280;28;20010;-64
2023/09/23 11:37:18;;;;;;;;;;;14.70;99.90;;;;;;5076623;28;19916;-65
2023/09/23 11:39:44;;;;;;;;;;;14.60;99.90;;;;;;5091569;28;19924;-66
2023/09/23 11:42:11;;;;;;;;;;;14.60;99.90;;;;;;5088957;28;20391;-65
2023/09/23 11:44:38;;;;;;;;;;;14.60;99.90;;;;;;5091299;28;19912;-64
2023/09/23 11:47:05;;;;;;;;;;;14.60;99.90;;;;;;5073110;28;19967;-65
2023/09/23 11:49:32;;;;;;;;;;;14.50;99.90;;;;;;5079472;28;19928;-66
2023/09/23 11:51:59;;;;;;;;;;;14.60;99.90;;;;;;5070693;28;19931;-64
2023/09/23 11:54:25;;;;;;;;;;;14.50;99.90;;;;;;5109853;28;20011;-65
2023/09/23 11:56:52;;;;;;;;;;;14.40;99.90;;;;;;5090555;28;19912;-67
2023/09/23 11:59:21;;;;;;;;;;;14.50;99.90;;;;;;5087983;28;19917;-67
2023/09/23 12:01:50;;;;;;;;;;;14.40;99.90;;;;;;5080141;28;19986;-67
2023/09/23 12:04:17;;;;;;;;;;;14.40;99.90;;;;;;5091306;28;20368;-66
2023/09/23 12:06:45;;;;;;;;;;;14.40;99.90;;;;;;5085423;28;20361;-67
2023/09/23 12:09:11;;;;;;;;;;;14.40;99.90;;;;;;5077125;28;20264;-66
2023/09/23 12:11:38;;;;;;;;;;;14.30;99.90;;;;;;5072459;28;20003;-66
2023/09/23 12:14:05;;;;;;;;;;;14.30;99.90;;;;;;5071805;28;19915;-71
2023/09/23 12:16:31;;;;;;;;;;;14.30;99.90;;;;;;5082278;28;20002;-64
2023/09/23 12:18:58;;;;;;;;;;;14.20;99.90;;;;;;5079871;28;20008;-66
2023/09/23 12:21:25;;;;;;;;;;;14.20;99.90;;;;;;5072173;28;20372;-66
2023/09/23 12:23:59;;;;;;;;;;;14.20;99.90;;;;;;5072160;28;19962;-66
2023/09/23 12:26:28;;;;;;;;;;;14.20;99.90;;;;;;5072261;28;20407;-67
2023/09/23 12:28:55;;;;;;;;;;;14.20;99.90;;;;;;5083359;28;19965;-66
2023/09/23 12:31:22;;;;;;;;;;;14.20;99.90;;;;;;5092719;28;19912;-67
2023/09/23 12:33:48;;;;;;;;;;;14.20;99.90;;;;;;5092491;28;20383;-66
2023/09/23 12:36:15;;;;;;;;;;;14.00;99.90;;;;;;5085942;28;20008;-65
2023/09/23 12:38:41;;;;;;;;;;;14.00;99.90;;;;;;5081245;28;20318;-64
2023/09/23 12:41:08;;;;;;;;;;;14.00;99.90;;;;;;5092135;28;19916;-67
2023/09/23 12:43:35;;;;;;;;;;;14.00;99.90;;;;;;5092225;28;19916;-73
2023/09/23 12:46:01;;;;;;;;;;;13.90;99.90;;;;;;5092256;28;19940;-68
2023/09/23 12:48:28;;;;;;;;;;;13.90;99.90;;;;;;5090517;28;19945;-69
2023/09/23 12:50:55;;;;;;;;;;;13.90;99.90;;;;;;5091825;28;20347;-68
2023/09/23 12:53:22;;;;;;;;;;;13.90;99.90;;;;;;5095384;28;19908;-69
2023/09/23 12:55:48;;;;;;;;;;;13.90;99.90;;;;;;5083655;28;20904;-68
2023/09/23 12:58:15;;;;;;;;;;;13.90;99.90;;;;;;5077172;28;19908;-70
2023/09/23 13:00:42;;;;;;;;;;;13.80;99.90;;;;;;5080904;28;20292;-68
2023/09/23 13:03:10;;;;;;;;;;;13.80;99.90;;;;;;5087589;28;19963;-71
2023/09/23 13:05:37;;;;;;;;;;;13.80;99.90;;;;;;5094874;28;20392;-66
2023/09/23 13:08:06;;;;;;;;;;;13.80;99.90;;;;;;5094969;28;19954;-74
2023/09/23 13:10:33;;;;;;;;;;;13.70;99.90;;;;;;5082584;28;19912;-67
2023/09/23 13:13:00;;;;;;;;;;;13.70;99.90;;;;;;5074721;28;19909;-68
2023/09/23 13:15:27;;;;;;;;;;;13.60;99.90;;;;;;5075472;28;20003;-67
2023/09/23 13:17:56;;;;;;;;;;;13.70;99.90;;;;;;5074976;28;20006;-69
2023/09/23 13:20:23;;;;;;;;;;;13.60;99.90;;;;;;5074894;28;20371;-74
2023/09/23 13:22:49;;;;;;;;;;;13.60;99.90;;;;;;5089375;28;20323;-66
2023/09/23 13:25:16;;;;;;;;;;;13.50;99.90;;;;;;5094931;28;19908;-70
2023/09/23 13:27:43;;;;;;;;;;;13.60;99.90;;;;;;5095205;28;19919;-69
2023/09/23 13:30:12;;;;;;;;;;;13.60;99.90;;;;;;5081673;28;20369;-70
2023/09/23 13:32:39;;;;;;;;;;;13.50;99.90;;;;;;5087652;28;19919;-65
2023/09/23 13:35:07;;;;;;;;;;;13.60;99.90;;;;;;5094849;28;20285;-70
2023/09/23 13:37:34;;;;;;;;;;;13.40;99.90;;;;;;5095006;28;20292;-67
2023/09/23 13:40:01;;;;;;;;;;;13.40;99.90;;;;;;5095011;28;19930;-71
2023/09/23 13:42:28;;;;;;;;;;;13.40;99.90;;;;;;5080689;28;20328;-74
2023/09/23 13:44:54;;;;;;;;;;;13.40;99.90;;;;;;5090976;28;19915;-71
2023/09/23 13:47:21;;;;;;;;;;;13.40;99.90;;;;;;5094046;28;19908;-67
2023/09/23 13:49:47;;;;;;;;;;;13.30;99.90;;;;;;5076460;28;20330;-65
2023/09/23 13:52:14;;;;;;;;;;;13.40;99.90;;;;;;5073752;28;19908;-67
2023/09/23 13:54:41;;;;;;;;;;;13.40;99.90;;;;;;5074322;28;19908;-68
2023/09/23 13:57:08;;;;;;;;;;;13.40;99.90;;;;;;5090769;28;19912;-64
2023/09/23 13:59:34;;;;;;;;;;;13.30;99.90;;;;;;5094547;28;19940;-71
2023/09/23 14:02:02;;;;;;;;;;;13.20;99.90;;;;;;5081816;28;20472;-67
2023/09/23 14:04:29;;;;;;;;;;;13.20;99.90;;;;;;5072708;28;20357;-74
2023/09/23 14:06:56;;;;;;;;;;;13.20;99.90;;;;;;5074065;28;19915;-69
2023/09/23 14:09:22;;;;;;;;;;;13.20;99.90;;;;;;5091322;28;19912;-67
2023/09/23 14:11:49;;;;;;;;;;;13.20;99.90;;;;;;5094361;28;19908;-67
2023/09/23 14:14:16;;;;;;;;;;;13.10;99.90;;;;;;5094333;28;20045;-66
2023/09/23 14:16:43;;;;;;;;;;;13.10;99.90;;;;;;5078549;28;19912;-66
2023/09/23 14:19:09;;;;;;;;;;;13.10;99.90;;;;;;5073854;28;19909;-69